Time;durP1;ratioP1;P1;durP2;ratioP2;P2;SDS_P1;SDS_P2;PMS_P1;PMS_P2;Temp;Humidity;BMP_temperature;BMP_pressure;BME280_temperature;BME280_humidity;BME280_pressure;Samples;Min_cycle;Max_cycle;Signal;HPM_P1;HPM_P2
2021/04/06 00:01:42;;;;;;;1.24;1.14;;;;;;;19.46;40.53;100243.27;;;;-57
2021/04/06 00:04:41;;;;;;;1.28;1.18;;;;;;;19.44;40.52;100239.44;;;;-57
2021/04/06 00:07:41;;;;;;;1.11;1.00;;;;;;;19.42;40.50;100241.06;;;;-57
2021/04/06 00:10:41;;;;;;;1.23;1.13;;;;;;;19.42;40.53;100246.34;;;;-57
2021/04/06 00:13:41;;;;;;;1.18;1.09;;;;;;;19.39;40.49;100245.20;;;;-57
2021/04/06 00:16:41;;;;;;;1.17;1.07;;;;;;;19.38;40.57;100245.21;;;;-57
2021/04/06 00:19:41;;;;;;;1.20;1.10;;;;;;;19.37;40.45;100240.23;;;;-57
2021/04/06 00:22:41;;;;;;;1.30;1.20;;;;;;;19.35;40.51;100238.36;;;;-57
2021/04/06 00:25:41;;;;;;;1.06;0.99;;;;;;;19.34;40.55;100235.69;;;;-57
2021/04/06 00:28:41;;;;;;;1.07;1.03;;;;;;;19.32;40.51;100236.50;;;;-57
2021/04/06 00:31:41;;;;;;;2.03;1.16;;;;;;;19.30;40.54;100235.67;;;;-57
2021/04/06 00:34:41;;;;;;;1.09;1.03;;;;;;;19.29;40.45;100229.16;;;;-57
2021/04/06 00:37:41;;;;;;;1.11;1.01;;;;;;;19.29;40.52;100225.02;;;;-57
2021/04/06 00:40:41;;;;;;;1.61;1.12;;;;;;;19.27;40.53;100223.30;;;;-58
2021/04/06 00:43:41;;;;;;;1.15;1.05;;;;;;;19.25;40.46;100220.61;;;;-57
2021/04/06 00:46:41;;;;;;;1.31;1.21;;;;;;;19.24;40.49;100207.95;;;;-57
2021/04/06 00:49:41;;;;;;;1.37;1.11;;;;;;;19.23;40.56;100196.95;;;;-57
2021/04/06 00:52:41;;;;;;;1.21;1.11;;;;;;;19.22;40.58;100190.97;;;;-57
2021/04/06 00:55:41;;;;;;;1.00;0.97;;;;;;;19.21;40.55;100197.45;;;;-57
2021/04/06 00:58:41;;;;;;;1.35;1.00;;;;;;;19.20;40.49;100200.86;;;;-57
2021/04/06 01:01:41;;;;;;;1.43;1.24;;;;;;;19.19;40.46;100200.69;;;;-57
2021/04/06 01:04:41;;;;;;;1.20;1.10;;;;;;;19.18;40.50;100205.00;;;;-57
2021/04/06 01:07:41;;;;;;;1.10;1.05;;;;;;;19.15;40.52;100208.62;;;;-57
2021/04/06 01:10:41;;;;;;;1.22;1.03;;;;;;;19.15;40.46;100208.14;;;;-57
2021/04/06 01:13:41;;;;;;;0.97;0.97;;;;;;;19.13;40.47;100193.59;;;;-57
2021/04/06 01:16:41;;;;;;;1.00;1.00;;;;;;;19.13;40.50;100195.30;;;;-57
2021/04/06 01:19:41;;;;;;;1.40;1.10;;;;;;;19.12;40.54;100202.30;;;;-57
2021/04/06 01:22:41;;;;;;;1.05;1.00;;;;;;;19.10;40.51;100197.58;;;;-57
2021/04/06 01:25:41;;;;;;;1.16;1.06;;;;;;;19.08;40.57;100198.14;;;;-57
2021/04/06 01:28:41;;;;;;;1.10;1.00;;;;;;;19.07;40.49;100191.73;;;;-57
2021/04/06 01:31:41;;;;;;;1.07;0.97;;;;;;;19.06;40.50;100190.41;;;;-57
2021/04/06 01:34:41;;;;;;;1.09;0.99;;;;;;;19.05;40.48;100185.36;;;;-58
2021/04/06 01:37:41;;;;;;;1.11;1.01;;;;;;;19.04;40.51;100184.56;;;;-57
2021/04/06 01:40:41;;;;;;;1.09;1.01;;;;;;;19.02;40.57;100184.47;;;;-57
2021/04/06 01:43:46;;;;;;;1.17;1.07;;;;;;;19.01;40.47;100185.29;;;;-57
2021/04/06 01:46:42;;;;;;;1.21;1.11;;;;;;;19.00;40.49;100173.58;;;;-57
2021/04/06 01:49:41;;;;;;;1.17;1.07;;;;;;;19.00;40.49;100169.28;;;;-57
2021/04/06 01:52:41;;;;;;;1.21;1.11;;;;;;;18.98;40.46;100163.66;;;;-57
2021/04/06 01:55:41;;;;;;;1.10;1.00;;;;;;;18.97;40.40;100164.32;;;;-57
2021/04/06 01:58:43;;;;;;;1.12;0.99;;;;;;;18.96;40.51;100158.86;;;;-57
2021/04/06 02:01:41;;;;;;;1.67;1.09;;;;;;;18.94;40.51;100155.69;;;;-57
2021/04/06 02:04:43;;;;;;;1.20;1.04;;;;;;;18.93;40.51;100158.86;;;;-57
2021/04/06 02:07:43;;;;;;;0.99;0.99;;;;;;;18.93;40.53;100158.55;;;;-57
2021/04/06 02:10:41;;;;;;;0.99;0.97;;;;;;;18.92;40.50;100162.75;;;;-57
2021/04/06 02:13:41;;;;;;;1.18;1.09;;;;;;;18.90;40.47;100158.92;;;;-57
2021/04/06 02:16:41;;;;;;;1.01;0.92;;;;;;;18.89;40.57;100149.52;;;;-57
2021/04/06 02:19:41;;;;;;;1.27;1.12;;;;;;;18.88;40.52;100153.17;;;;-57
2021/04/06 02:22:41;;;;;;;1.20;1.10;;;;;;;18.87;40.50;100152.99;;;;-57
2021/04/06 02:25:41;;;;;;;1.19;1.09;;;;;;;18.87;40.49;100156.73;;;;-57
2021/04/06 02:28:41;;;;;;;1.15;1.05;;;;;;;18.86;40.46;100158.98;;;;-57
2021/04/06 02:31:41;;;;;;;1.00;0.90;;;;;;;18.85;40.46;100160.62;;;;-57
2021/04/06 02:34:41;;;;;;;1.01;0.94;;;;;;;18.84;40.57;100164.74;;;;-57
2021/04/06 02:37:41;;;;;;;1.00;1.00;;;;;;;18.83;40.46;100165.48;;;;-57
2021/04/06 02:40:41;;;;;;;1.00;0.97;;;;;;;18.82;40.54;100166.27;;;;-57
2021/04/06 02:43:41;;;;;;;1.10;1.00;;;;;;;18.80;40.59;100173.68;;;;-58
2021/04/06 02:46:48;;;;;;;1.25;0.91;;;;;;;18.80;40.61;100164.09;;;;-57
2021/04/06 02:49:41;;;;;;;1.32;1.17;;;;;;;18.79;40.45;100165.05;;;;-57
2021/04/06 02:52:41;;;;;;;1.01;0.99;;;;;;;18.78;40.45;100163.16;;;;-57
2021/04/06 02:55:41;;;;;;;1.10;1.03;;;;;;;18.77;40.49;100169.97;;;;-57
2021/04/06 02:58:41;;;;;;;0.89;0.89;;;;;;;18.75;40.41;100164.34;;;;-57
2021/04/06 03:01:41;;;;;;;1.25;1.09;;;;;;;18.75;40.49;100169.79;;;;-57
2021/04/06 03:04:41;;;;;;;1.09;1.00;;;;;;;18.74;40.50;100162.42;;;;-58
2021/04/06 03:07:41;;;;;;;1.25;1.11;;;;;;;18.73;40.57;100161.19;;;;-57
2021/04/06 03:10:41;;;;;;;1.22;1.00;;;;;;;18.72;40.55;100158.41;;;;-55
2021/04/06 03:13:41;;;;;;;1.40;1.13;;;;;;;18.71;40.57;100156.38;;;;-55
2021/04/06 03:16:41;;;;;;;1.04;0.95;;;;;;;18.69;40.47;100156.04;;;;-55
2021/04/06 03:19:41;;;;;;;1.19;1.09;;;;;;;18.69;40.51;100152.55;;;;-55
2021/04/06 03:22:41;;;;;;;1.18;1.06;;;;;;;18.69;40.49;100160.75;;;;-57
2021/04/06 03:25:41;;;;;;;1.29;1.10;;;;;;;18.67;40.57;100154.73;;;;-57
2021/04/06 03:28:41;;;;;;;1.19;1.09;;;;;;;18.67;40.53;100150.11;;;;-57
2021/04/06 03:31:41;;;;;;;1.21;1.08;;;;;;;18.66;40.46;100152.72;;;;-57
2021/04/06 03:34:42;;;;;;;1.02;0.90;;;;;;;18.65;40.64;100153.27;;;;-57
2021/04/06 03:37:41;;;;;;;1.12;1.00;;;;;;;18.64;40.49;100153.76;;;;-57
2021/04/06 03:40:41;;;;;;;1.11;1.05;;;;;;;18.62;40.63;100157.80;;;;-57
2021/04/06 03:43:41;;;;;;;1.14;1.04;;;;;;;18.61;40.52;100157.70;;;;-57
2021/04/06 03:46:41;;;;;;;1.13;1.03;;;;;;;18.60;40.55;100152.19;;;;-57
2021/04/06 03:49:41;;;;;;;1.25;0.97;;;;;;;18.60;40.64;100158.53;;;;-57
2021/04/06 03:52:41;;;;;;;1.41;1.10;;;;;;;18.60;40.49;100156.41;;;;-57
2021/04/06 03:55:41;;;;;;;1.17;1.07;;;;;;;18.59;40.60;100148.93;;;;-57
2021/04/06 03:58:42;;;;;;;1.03;1.01;;;;;;;18.57;40.61;100149.00;;;;-57
2021/04/06 04:01:41;;;;;;;1.21;1.11;;;;;;;18.58;40.57;100143.59;;;;-57
2021/04/06 04:04:41;;;;;;;0.92;0.92;;;;;;;18.57;40.51;100143.08;;;;-57
2021/04/06 04:07:41;;;;;;;1.51;1.03;;;;;;;18.56;40.52;100143.33;;;;-57
2021/04/06 04:10:41;;;;;;;1.08;0.99;;;;;;;18.55;40.57;100135.52;;;;-57
2021/04/06 04:13:41;;;;;;;1.29;1.05;;;;;;;18.55;40.65;100140.17;;;;-57
2021/04/06 04:16:41;;;;;;;1.15;1.04;;;;;;;18.53;40.52;100129.59;;;;-57
2021/04/06 04:19:41;;;;;;;1.39;1.07;;;;;;;18.52;40.55;100139.89;;;;-57
2021/04/06 04:22:41;;;;;;;1.23;1.10;;;;;;;18.53;40.55;100139.89;;;;-57
2021/04/06 04:25:41;;;;;;;1.14;1.05;;;;;;;18.51;40.58;100138.09;;;;-57
2021/04/06 04:28:41;;;;;;;1.09;0.99;;;;;;;18.51;40.60;100138.61;;;;-57
2021/04/06 04:31:44;;;;;;;1.21;1.11;;;;;;;18.50;40.58;100136.23;;;;-57
2021/04/06 04:34:41;;;;;;;1.25;1.15;;;;;;;18.49;40.69;100140.35;;;;-57
2021/04/06 04:37:41;;;;;;;1.03;1.01;;;;;;;18.48;40.71;100132.56;;;;-57
2021/04/06 04:40:41;;;;;;;1.31;1.20;;;;;;;18.47;40.64;100130.88;;;;-57
2021/04/06 04:43:41;;;;;;;1.42;0.99;;;;;;;18.47;40.56;100135.75;;;;-57
2021/04/06 04:46:41;;;;;;;1.25;1.08;;;;;;;18.46;40.61;100137.51;;;;-57
2021/04/06 04:49:41;;;;;;;1.03;0.93;;;;;;;18.45;40.63;100131.83;;;;-57
2021/04/06 04:52:41;;;;;;;1.05;0.98;;;;;;;18.44;40.62;100138.55;;;;-57
2021/04/06 04:55:41;;;;;;;1.03;0.90;;;;;;;18.43;40.63;100144.08;;;;-57
2021/04/06 04:58:41;;;;;;;1.20;1.10;;;;;;;18.43;40.70;100141.78;;;;-57
2021/04/06 05:01:41;;;;;;;1.27;1.06;;;;;;;18.41;40.60;100144.14;;;;-57
2021/04/06 05:04:41;;;;;;;1.12;0.99;;;;;;;18.41;40.64;100149.34;;;;-57
2021/04/06 05:07:41;;;;;;;1.21;1.09;;;;;;;18.40;40.63;100149.80;;;;-57
2021/04/06 05:10:41;;;;;;;1.00;0.97;;;;;;;18.41;40.66;100150.53;;;;-57
2021/04/06 05:13:41;;;;;;;1.11;0.89;;;;;;;18.39;40.69;100152.00;;;;-57
2021/04/06 05:16:41;;;;;;;1.03;0.93;;;;;;;18.40;40.66;100158.65;;;;-57
2021/04/06 05:19:41;;;;;;;1.10;0.99;;;;;;;18.41;40.68;100160.78;;;;-57
2021/04/06 05:22:41;;;;;;;1.10;1.00;;;;;;;18.41;40.75;100164.84;;;;-57
2021/04/06 05:25:41;;;;;;;1.14;1.04;;;;;;;18.43;40.75;100166.95;;;;-57
2021/04/06 05:28:41;;;;;;;1.04;0.95;;;;;;;18.44;40.77;100170.52;;;;-57
2021/04/06 05:31:41;;;;;;;0.93;0.91;;;;;;;18.46;40.65;100171.75;;;;-57
2021/04/06 05:34:41;;;;;;;1.19;1.09;;;;;;;18.47;40.87;100171.53;;;;-57
2021/04/06 05:37:41;;;;;;;1.42;1.12;;;;;;;18.48;40.87;100171.59;;;;-57
2021/04/06 05:40:41;;;;;;;1.10;1.00;;;;;;;18.51;40.87;100178.50;;;;-56
2021/04/06 05:43:41;;;;;;;1.09;0.99;;;;;;;18.53;41.03;100180.81;;;;-57
2021/04/06 05:46:41;;;;;;;0.91;0.90;;;;;;;18.56;40.92;100182.27;;;;-55
2021/04/06 05:49:41;;;;;;;1.05;0.95;;;;;;;18.59;40.92;100177.03;;;;-54
2021/04/06 05:52:41;;;;;;;1.20;1.10;;;;;;;18.62;40.95;100185.31;;;;-54
2021/04/06 05:55:41;;;;;;;1.15;1.05;;;;;;;18.67;40.96;100180.13;;;;-54
2021/04/06 05:58:41;;;;;;;1.13;1.03;;;;;;;18.71;40.95;100177.89;;;;-54
2021/04/06 06:01:41;;;;;;;1.71;1.17;;;;;;;18.74;40.95;100179.22;;;;-55
2021/04/06 06:04:41;;;;;;;1.08;1.03;;;;;;;18.78;40.99;100178.27;;;;-55
2021/04/06 06:07:41;;;;;;;1.37;1.15;;;;;;;18.81;40.87;100177.16;;;;-55
2021/04/06 06:10:41;;;;;;;1.17;1.07;;;;;;;18.82;40.90;100181.39;;;;-54
2021/04/06 06:13:41;;;;;;;1.21;0.93;;;;;;;18.84;40.95;100177.65;;;;-54
2021/04/06 06:16:41;;;;;;;1.15;1.05;;;;;;;18.86;40.92;100181.62;;;;-55
2021/04/06 06:19:41;;;;;;;1.00;1.00;;;;;;;18.87;40.85;100177.52;;;;-55
2021/04/06 06:22:41;;;;;;;1.06;0.92;;;;;;;18.88;40.95;100178.67;;;;-54
2021/04/06 06:25:41;;;;;;;1.12;1.02;;;;;;;18.90;40.93;100179.95;;;;-57
2021/04/06 06:28:41;;;;;;;1.93;1.23;;;;;;;18.90;40.90;100186.69;;;;-57
2021/04/06 06:31:43;;;;;;;1.26;1.13;;;;;;;18.90;40.90;100186.77;;;;-57
2021/04/06 06:34:41;;;;;;;1.89;0.97;;;;;;;18.91;40.82;100185.33;;;;-57
2021/04/06 06:37:41;;;;;;;1.28;0.93;;;;;;;18.91;40.81;100179.08;;;;-57
2021/04/06 06:40:41;;;;;;;1.11;1.01;;;;;;;18.92;40.85;100180.53;;;;-57
2021/04/06 06:43:41;;;;;;;1.21;1.11;;;;;;;18.91;40.89;100175.99;;;;-56
2021/04/06 06:46:41;;;;;;;1.11;1.01;;;;;;;18.91;40.81;100172.66;;;;-56
2021/04/06 06:49:41;;;;;;;1.07;0.97;;;;;;;18.91;40.79;100176.64;;;;-57
2021/04/06 06:52:41;;;;;;;1.33;1.07;;;;;;;18.91;40.87;100173.80;;;;-58
2021/04/06 06:55:41;;;;;;;1.33;1.11;;;;;;;18.91;40.88;100178.03;;;;-57
2021/04/06 06:58:41;;;;;;;1.10;1.03;;;;;;;18.90;40.86;100178.73;;;;-57
2021/04/06 07:01:41;;;;;;;1.15;1.05;;;;;;;18.90;40.90;100181.81;;;;-55
2021/04/06 07:04:41;;;;;;;1.14;1.00;;;;;;;18.90;40.90;100181.73;;;;-55
2021/04/06 07:07:41;;;;;;;1.20;1.10;;;;;;;18.90;40.67;100182.23;;;;-55
2021/04/06 07:10:41;;;;;;;1.01;0.97;;;;;;;18.89;40.93;100182.31;;;;-55
2021/04/06 07:13:41;;;;;;;1.23;1.13;;;;;;;18.89;40.77;100182.07;;;;-55
2021/04/06 07:16:41;;;;;;;1.41;1.06;;;;;;;18.89;40.91;100182.07;;;;-55
2021/04/06 07:19:41;;;;;;;3.71;1.45;;;;;;;18.72;38.84;100179.67;;;;-59
2021/04/06 07:22:41;;;;;;;3.43;1.82;;;;;;;18.37;37.02;100189.55;;;;-50
2021/04/06 07:25:41;;;;;;;5.75;2.14;;;;;;;18.03;35.71;100184.83;;;;-54
2021/04/06 07:28:41;;;;;;;4.83;2.10;;;;;;;18.03;36.31;100184.10;;;;-52
2021/04/06 07:31:41;;;;;;;3.97;2.00;;;;;;;18.18;37.30;100185.83;;;;-51
2021/04/06 07:34:41;;;;;;;2.99;1.74;;;;;;;18.27;37.71;100184.61;;;;-52
2021/04/06 07:37:41;;;;;;;3.31;1.83;;;;;;;18.36;38.04;100181.66;;;;-52
2021/04/06 07:40:41;;;;;;;6.67;1.98;;;;;;;18.44;38.38;100185.94;;;;-52
2021/04/06 07:43:41;;;;;;;4.34;1.74;;;;;;;18.52;38.42;100187.21;;;;-51
2021/04/06 07:46:41;;;;;;;4.32;1.90;;;;;;;18.57;38.15;100181.78;;;;-50
2021/04/06 07:49:41;;;;;;;6.44;1.79;;;;;;;18.69;39.02;100182.26;;;;-48
2021/04/06 07:52:41;;;;;;;2.88;1.77;;;;;;;18.77;39.38;100178.32;;;;-49
2021/04/06 07:55:41;;;;;;;6.29;1.87;;;;;;;18.87;39.78;100182.95;;;;-48
2021/04/06 07:58:41;;;;;;;4.43;1.73;;;;;;;18.96;39.78;100185.50;;;;-48
2021/04/06 08:01:41;;;;;;;5.13;1.69;;;;;;;19.02;39.78;100177.41;;;;-51
2021/04/06 08:04:41;;;;;;;3.91;1.85;;;;;;;19.08;40.11;100174.26;;;;-51
2021/04/06 08:07:41;;;;;;;4.53;1.69;;;;;;;19.13;40.12;100174.10;;;;-52
2021/04/06 08:10:41;;;;;;;5.46;1.70;;;;;;;19.18;40.17;100176.41;;;;-49
2021/04/06 08:13:41;;;;;;;4.90;1.67;;;;;;;19.23;40.17;100184.45;;;;-59
2021/04/06 08:16:41;;;;;;;4.44;1.84;;;;;;;19.28;39.97;100188.06;;;;-56
2021/04/06 08:19:41;;;;;;;4.30;1.61;;;;;;;19.32;39.50;100189.61;;;;-51
2021/04/06 08:22:41;;;;;;;4.29;1.69;;;;;;;19.36;38.97;100192.69;;;;-50
2021/04/06 08:25:41;;;;;;;2.75;1.71;;;;;;;19.38;38.88;100189.79;;;;-55
2021/04/06 08:28:41;;;;;;;4.12;1.82;;;;;;;19.42;38.84;100189.72;;;;-51
2021/04/06 08:31:41;;;;;;;2.39;1.63;;;;;;;19.45;38.71;100191.02;;;;-59
2021/04/06 08:34:41;;;;;;;2.83;1.51;;;;;;;19.48;38.90;100192.63;;;;-53
2021/04/06 08:37:41;;;;;;;2.43;1.60;;;;;;;19.51;38.42;100193.39;;;;-60
2021/04/06 08:40:41;;;;;;;2.02;1.61;;;;;;;19.55;38.70;100195.43;;;;-52
2021/04/06 08:43:41;;;;;;;3.79;1.59;;;;;;;19.58;38.60;100202.00;;;;-53
2021/04/06 08:46:43;;;;;;;2.74;1.60;;;;;;;19.61;38.51;100192.77;;;;-50
2021/04/06 08:49:41;;;;;;;2.51;1.55;;;;;;;19.64;38.46;100193.31;;;;-56
2021/04/06 08:52:41;;;;;;;3.27;1.58;;;;;;;19.67;38.37;100201.80;;;;-55
2021/04/06 08:55:41;;;;;;;2.41;1.61;;;;;;;19.72;38.97;100196.55;;;;-56
2021/04/06 08:58:41;;;;;;;2.83;1.55;;;;;;;19.73;38.42;100192.13;;;;-54
2021/04/06 09:01:41;;;;;;;3.95;1.48;;;;;;;19.76;38.39;100201.02;;;;-54
2021/04/06 09:04:41;;;;;;;2.09;1.61;;;;;;;19.78;38.38;100201.59;;;;-58
2021/04/06 09:07:41;;;;;;;3.47;1.61;;;;;;;19.80;38.41;100202.32;;;;-57
2021/04/06 09:10:41;;;;;;;2.67;1.57;;;;;;;19.82;38.17;100198.31;;;;-60
2021/04/06 09:13:41;;;;;;;2.57;1.49;;;;;;;19.84;38.41;100195.34;;;;-52
2021/04/06 09:16:41;;;;;;;3.39;1.44;;;;;;;19.85;38.21;100197.19;;;;-59
2021/04/06 09:19:41;;;;;;;2.07;1.59;;;;;;;19.88;38.28;100188.08;;;;-57
2021/04/06 09:22:41;;;;;;;2.02;1.54;;;;;;;19.89;38.09;100180.94;;;;-56
2021/04/06 09:25:41;;;;;;;2.79;1.53;;;;;;;19.90;38.16;100182.89;;;;-61
2021/04/06 09:28:41;;;;;;;2.49;1.55;;;;;;;19.92;38.34;100182.71;;;;-52
2021/04/06 09:31:41;;;;;;;2.65;1.51;;;;;;;19.94;39.05;100173.77;;;;-49
2021/04/06 09:34:41;;;;;;;4.34;1.60;;;;;;;19.93;38.53;100169.70;;;;-52
2021/04/06 09:37:41;;;;;;;3.20;1.50;;;;;;;19.95;38.68;100154.91;;;;-52
2021/04/06 09:40:41;;;;;;;9.41;2.14;;;;;;;20.01;39.40;100158.00;;;;-53
2021/04/06 09:43:41;;;;;;;5.49;1.60;;;;;;;20.05;39.63;100157.27;;;;-50
2021/04/06 09:46:41;;;;;;;5.54;1.83;;;;;;;20.09;39.84;100155.63;;;;-55
2021/04/06 09:49:41;;;;;;;3.74;1.58;;;;;;;20.12;39.80;100154.16;;;;-54
2021/04/06 09:52:41;;;;;;;7.17;1.85;;;;;;;20.18;40.16;100150.98;;;;-51
2021/04/06 09:55:41;;;;;;;9.37;1.80;;;;;;;20.21;40.06;100143.39;;;;-54
2021/04/06 09:58:41;;;;;;;6.41;1.64;;;;;;;20.23;39.96;100140.30;;;;-54
2021/04/06 10:01:41;;;;;;;5.28;1.53;;;;;;;20.26;39.99;100131.84;;;;-57
2021/04/06 10:04:41;;;;;;;2.77;1.65;;;;;;;20.26;40.01;100131.35;;;;-51
2021/04/06 10:07:41;;;;;;;2.74;1.57;;;;;;;20.28;39.84;100122.81;;;;-52
2021/04/06 10:10:41;;;;;;;4.05;1.64;;;;;;;20.29;39.75;100121.17;;;;-57
2021/04/06 10:13:41;;;;;;;3.23;1.66;;;;;;;20.31;39.77;100113.83;;;;-49
2021/04/06 10:16:42;;;;;;;3.63;1.54;;;;;;;20.34;39.99;100121.33;;;;-50
2021/04/06 10:19:41;;;;;;;5.71;1.72;;;;;;;20.36;39.91;100112.38;;;;-57
2021/04/06 10:22:41;;;;;;;2.24;1.40;;;;;;;20.35;39.83;100114.16;;;;-57
2021/04/06 10:25:41;;;;;;;3.82;1.55;;;;;;;20.34;39.87;100104.89;;;;-57
2021/04/06 10:28:41;;;;;;;5.51;1.69;;;;;;;20.34;39.77;100108.47;;;;-57
2021/04/06 10:31:41;;;;;;;3.49;1.47;;;;;;;20.34;39.73;100116.28;;;;-57
2021/04/06 10:34:41;;;;;;;1.78;1.33;;;;;;;20.35;39.77;100100.97;;;;-57
2021/04/06 10:37:41;;;;;;;3.17;1.51;;;;;;;20.34;39.84;100104.16;;;;-58
2021/04/06 10:40:41;;;;;;;4.20;1.36;;;;;;;20.35;39.80;100095.11;;;;-57
2021/04/06 10:43:41;;;;;;;3.20;1.40;;;;;;;20.35;39.80;100103.08;;;;-58
2021/04/06 10:46:41;;;;;;;2.22;1.50;;;;;;;20.36;39.80;100104.23;;;;-53
2021/04/06 10:49:41;;;;;;;2.48;1.50;;;;;;;20.37;39.85;100100.16;;;;-58
2021/04/06 10:52:41;;;;;;;2.09;1.39;;;;;;;20.38;39.80;100111.55;;;;-58
2021/04/06 10:55:41;;;;;;;2.33;1.49;;;;;;;20.38;39.85;100105.61;;;;-53
2021/04/06 10:58:41;;;;;;;2.08;1.40;;;;;;;20.39;39.81;100105.76;;;;-53
2021/04/06 11:01:41;;;;;;;2.04;1.40;;;;;;;20.39;39.86;100095.25;;;;-53
2021/04/06 11:04:41;;;;;;;2.61;1.35;;;;;;;20.40;39.84;100078.02;;;;-53
2021/04/06 11:07:41;;;;;;;2.13;1.29;;;;;;;20.41;39.85;100075.65;;;;-53
2021/04/06 11:10:41;;;;;;;2.82;1.41;;;;;;;20.42;39.87;100066.67;;;;-53
2021/04/06 11:13:41;;;;;;;2.92;1.27;;;;;;;20.42;39.86;100064.74;;;;-53
2021/04/06 11:16:41;;;;;;;2.67;1.27;;;;;;;20.42;39.87;100060.02;;;;-56
2021/04/06 11:19:41;;;;;;;1.73;1.20;;;;;;;20.44;39.82;100055.69;;;;-53
2021/04/06 11:22:41;;;;;;;1.56;1.15;;;;;;;20.44;39.79;100055.20;;;;-53
2021/04/06 11:25:43;;;;;;;1.45;1.29;;;;;;;20.44;39.81;100049.92;;;;-53
2021/04/06 11:28:41;;;;;;;1.79;1.39;;;;;;;20.44;39.84;100042.09;;;;-53
2021/04/06 11:31:41;;;;;;;2.06;1.45;;;;;;;20.45;39.83;100043.81;;;;-53
2021/04/06 11:34:41;;;;;;;1.96;1.38;;;;;;;20.45;39.83;100034.44;;;;-51
2021/04/06 11:37:41;;;;;;;2.83;1.30;;;;;;;20.50;40.05;100034.84;;;;-53
2021/04/06 11:40:41;;;;;;;3.59;1.36;;;;;;;20.52;40.16;100035.16;;;;-52
2021/04/06 11:43:41;;;;;;;2.44;1.32;;;;;;;20.55;40.36;100035.45;;;;-51
2021/04/06 11:46:41;;;;;;;2.95;1.43;;;;;;;20.57;40.33;100019.48;;;;-51
2021/04/06 11:49:41;;;;;;;1.65;1.22;;;;;;;20.61;40.36;100023.00;;;;-54
2021/04/06 11:52:41;;;;;;;3.71;1.30;;;;;;;20.63;40.46;100018.75;;;;-56
2021/04/06 11:55:41;;;;;;;2.01;1.40;;;;;;;20.57;38.75;100019.25;;;;-53
2021/04/06 11:58:41;;;;;;;2.26;1.30;;;;;;;20.61;39.83;100023.48;;;;-50
2021/04/06 12:01:41;;;;;;;1.75;1.29;;;;;;;20.63;39.95;100024.14;;;;-51
2021/04/06 12:04:41;;;;;;;3.45;1.45;;;;;;;20.64;39.97;100036.32;;;;-51
2021/04/06 12:07:41;;;;;;;3.00;1.30;;;;;;;20.66;40.11;100052.77;;;;-50
2021/04/06 12:10:43;;;;;;;2.35;1.31;;;;;;;20.68;40.21;100064.89;;;;-50
2021/04/06 12:13:41;;;;;;;1.79;1.31;;;;;;;20.71;40.21;100079.84;;;;-50
2021/04/06 12:16:41;;;;;;;2.11;1.31;;;;;;;20.73;40.21;100080.33;;;;-50
2021/04/06 12:19:41;;;;;;;2.07;1.30;;;;;;;20.73;40.32;100078.64;;;;-52
2021/04/06 12:22:41;;;;;;;2.20;1.25;;;;;;;20.75;40.32;100068.75;;;;-54
2021/04/06 12:25:41;;;;;;;1.74;1.39;;;;;;;20.77;40.37;100064.78;;;;-54
2021/04/06 12:28:41;;;;;;;1.75;1.20;;;;;;;20.78;40.40;100051.00;;;;-56
2021/04/06 12:31:41;;;;;;;2.09;1.30;;;;;;;20.79;40.33;100022.17;;;;-49
2021/04/06 12:34:41;;;;;;;1.43;1.21;;;;;;;20.83;40.45;100024.49;;;;-51
2021/04/06 12:37:41;;;;;;;1.48;1.23;;;;;;;20.84;40.43;100027.11;;;;-59
2021/04/06 12:40:41;;;;;;;1.74;1.19;;;;;;;20.85;40.36;100030.27;;;;-54
2021/04/06 12:43:41;;;;;;;1.45;1.22;;;;;;;20.86;40.29;100026.36;;;;-55
2021/04/06 12:46:41;;;;;;;1.46;1.23;;;;;;;20.87;40.25;100019.18;;;;-56
2021/04/06 12:49:41;;;;;;;1.62;1.21;;;;;;;20.88;40.43;100009.56;;;;-53
2021/04/06 12:52:41;;;;;;;3.55;1.33;;;;;;;20.89;40.37;100005.16;;;;-56
2021/04/06 12:55:41;;;;;;;1.52;1.28;;;;;;;20.90;40.41;99996.36;;;;-53
2021/04/06 12:58:41;;;;;;;1.58;1.20;;;;;;;20.91;40.38;99989.50;;;;-53
2021/04/06 13:01:41;;;;;;;2.42;1.14;;;;;;;20.91;40.37;99982.17;;;;-53
2021/04/06 13:04:41;;;;;;;2.25;1.19;;;;;;;20.92;40.21;99980.95;;;;-50
2021/04/06 13:07:42;;;;;;;1.40;1.19;;;;;;;20.91;40.24;99980.70;;;;-50
2021/04/06 13:10:41;;;;;;;2.05;1.27;;;;;;;20.88;39.41;99974.70;;;;-51
2021/04/06 13:13:41;;;;;;;1.49;1.15;;;;;;;20.87;39.28;99976.02;;;;-50
2021/04/06 13:16:41;;;;;;;3.02;1.29;;;;;;;20.85;39.45;99972.76;;;;-52
2021/04/06 13:19:41;;;;;;;1.27;1.17;;;;;;;20.84;39.50;99974.00;;;;-51
2021/04/06 13:22:41;;;;;;;3.52;1.33;;;;;;;20.84;39.55;99979.63;;;;-52
2021/04/06 13:25:41;;;;;;;1.35;1.08;;;;;;;20.82;39.62;99977.44;;;;-51
2021/04/06 13:28:41;;;;;;;1.23;1.11;;;;;;;20.81;39.66;99979.23;;;;-51
2021/04/06 13:31:41;;;;;;;1.13;1.02;;;;;;;20.81;39.66;99974.66;;;;-51
2021/04/06 13:34:41;;;;;;;1.74;1.14;;;;;;;20.80;39.67;99964.66;;;;-51
2021/04/06 13:37:41;;;;;;;1.37;1.17;;;;;;;20.80;39.70;99962.31;;;;-50
2021/04/06 13:40:41;;;;;;;1.81;1.16;;;;;;;20.85;40.03;99952.89;;;;-58
2021/04/06 13:43:41;;;;;;;2.31;1.16;;;;;;;20.90;40.69;99943.83;;;;-50
2021/04/06 13:46:41;;;;;;;3.09;1.33;;;;;;;20.96;41.32;99933.52;;;;-47
2021/04/06 13:49:41;;;;;;;2.81;1.25;;;;;;;20.94;40.45;99928.47;;;;-48
2021/04/06 13:52:41;;;;;;;4.65;1.31;;;;;;;20.95;39.88;99923.50;;;;-58
2021/04/06 13:55:41;;;;;;;3.86;1.28;;;;;;;20.96;40.89;99913.55;;;;-49
2021/04/06 13:58:41;;;;;;;3.80;1.39;;;;;;;20.94;40.01;99909.52;;;;-47
2021/04/06 14:01:41;;;;;;;7.13;1.32;;;;;;;20.92;39.77;99904.72;;;;-45
2021/04/06 14:04:42;;;;;;;3.49;1.39;;;;;;;20.89;38.72;99902.05;;;;-45
2021/04/06 14:07:41;;;;;;;3.57;1.27;;;;;;;20.91;39.77;99899.02;;;;-53
2021/04/06 14:10:41;;;;;;;4.85;1.31;;;;;;;20.90;39.61;99895.84;;;;-50
2021/04/06 14:13:41;;;;;;;5.09;1.26;;;;;;;20.91;39.69;99887.20;;;;-50
2021/04/06 14:16:41;;;;;;;2.49;1.53;;;;;;;20.92;39.80;99878.41;;;;-50
2021/04/06 14:19:41;;;;;;;2.34;1.22;;;;;;;20.95;40.04;99880.81;;;;-48
2021/04/06 14:22:41;;;;;;;2.87;1.11;;;;;;;20.96;40.20;99870.23;;;;-47
2021/04/06 14:25:41;;;;;;;6.35;1.09;;;;;;;20.98;40.34;99863.75;;;;-48
2021/04/06 14:28:41;;;;;;;4.00;1.20;;;;;;;20.96;40.36;99852.96;;;;-45
2021/04/06 14:31:41;;;;;;;5.65;1.34;;;;;;;20.96;40.08;99851.39;;;;-50
2021/04/06 14:34:41;;;;;;;5.17;1.21;;;;;;;20.96;39.68;99857.44;;;;-44
2021/04/06 14:37:41;;;;;;;6.17;1.33;;;;;;;21.00;40.50;99857.56;;;;-48
2021/04/06 14:40:41;;;;;;;5.40;1.30;;;;;;;21.03;40.62;99856.23;;;;-48
2021/04/06 14:43:41;;;;;;;5.07;1.44;;;;;;;21.06;40.58;99848.54;;;;-50
2021/04/06 14:46:41;;;;;;;5.45;1.28;;;;;;;21.05;40.36;99836.31;;;;-51
2021/04/06 14:49:41;;;;;;;2.93;1.31;;;;;;;21.07;40.54;99839.23;;;;-54
2021/04/06 14:52:41;;;;;;;2.57;1.10;;;;;;;21.08;40.47;99843.05;;;;-56
2021/04/06 14:55:41;;;;;;;3.40;1.13;;;;;;;21.07;40.41;99832.55;;;;-61
2021/04/06 14:58:41;;;;;;;3.09;1.15;;;;;;;21.07;40.39;99830.11;;;;-56
2021/04/06 15:01:41;;;;;;;2.10;1.22;;;;;;;21.06;40.21;99825.15;;;;-51
2021/04/06 15:04:42;;;;;;;4.03;1.39;;;;;;;20.99;39.73;99830.19;;;;-53
2021/04/06 15:07:41;;;;;;;6.13;1.40;;;;;;;21.03;40.01;99828.04;;;;-51
2021/04/06 15:10:41;;;;;;;3.00;1.26;;;;;;;21.02;39.78;99825.77;;;;-56
2021/04/06 15:13:41;;;;;;;5.07;1.26;;;;;;;21.01;39.72;99832.78;;;;-57
2021/04/06 15:16:41;;;;;;;1.80;1.23;;;;;;;21.00;39.69;99852.33;;;;-54
2021/04/06 15:19:41;;;;;;;2.88;1.17;;;;;;;21.00;39.68;99852.11;;;;-54
2021/04/06 15:22:41;;;;;;;1.65;1.11;;;;;;;20.99;39.71;99854.88;;;;-55
2021/04/06 15:25:41;;;;;;;1.86;1.11;;;;;;;20.98;39.68;99848.63;;;;-57
2021/04/06 15:28:41;;;;;;;3.80;1.24;;;;;;;20.94;39.76;99843.69;;;;-60
2021/04/06 15:31:41;;;;;;;2.14;1.20;;;;;;;20.89;38.60;99843.48;;;;-53
2021/04/06 15:34:41;;;;;;;4.07;1.17;;;;;;;20.95;39.84;99848.32;;;;-63
2021/04/06 15:37:44;;;;;;;5.53;1.33;;;;;;;20.98;39.79;99840.80;;;;-53
2021/04/06 15:40:41;;;;;;;5.02;1.31;;;;;;;21.01;39.94;99846.30;;;;-55
2021/04/06 15:43:42;;;;;;;8.64;1.23;;;;;;;21.07;40.75;99846.57;;;;-55
2021/04/06 15:46:41;;;;;;;3.66;1.10;;;;;;;21.07;39.86;99845.09;;;;-51
2021/04/06 15:49:41;;;;;;;3.35;1.21;;;;;;;21.06;39.90;99840.56;;;;-53
2021/04/06 15:52:41;;;;;;;3.21;1.23;;;;;;;21.09;40.04;99839.05;;;;-51
2021/04/06 15:55:41;;;;;;;1.68;1.01;;;;;;;21.09;40.18;99848.01;;;;-51
2021/04/06 15:58:41;;;;;;;3.51;1.24;;;;;;;21.12;40.06;99840.80;;;;-53
2021/04/06 16:01:41;;;;;;;2.80;1.16;;;;;;;21.13;39.99;99843.75;;;;-57
2021/04/06 16:04:41;;;;;;;1.58;1.07;;;;;;;21.13;39.96;99841.71;;;;-53
2021/04/06 16:07:41;;;;;;;3.46;1.20;;;;;;;21.13;40.06;99846.91;;;;-50
2021/04/06 16:10:41;;;;;;;2.24;1.10;;;;;;;21.15;40.05;99845.02;;;;-51
2021/04/06 16:13:41;;;;;;;2.31;1.14;;;;;;;21.17;40.23;99840.44;;;;-50
2021/04/06 16:16:41;;;;;;;3.13;1.02;;;;;;;21.17;40.07;99841.17;;;;-50
2021/04/06 16:19:41;;;;;;;1.52;1.17;;;;;;;21.20;40.43;99838.59;;;;-51
2021/04/06 16:22:41;;;;;;;2.18;1.12;;;;;;;21.19;40.39;99835.55;;;;-51
2021/04/06 16:25:41;;;;;;;1.79;1.15;;;;;;;21.20;40.31;99837.06;;;;-50
2021/04/06 16:28:41;;;;;;;1.81;1.10;;;;;;;21.19;40.38;99827.70;;;;-55
2021/04/06 16:31:41;;;;;;;1.28;1.09;;;;;;;21.21;40.48;99833.89;;;;-58
2021/04/06 16:34:41;;;;;;;1.56;1.03;;;;;;;21.19;40.47;99834.63;;;;-56
2021/04/06 16:37:41;;;;;;;1.85;1.10;;;;;;;21.16;40.06;99838.97;;;;-52
2021/04/06 16:40:41;;;;;;;2.36;1.04;;;;;;;21.15;40.00;99843.63;;;;-57
2021/04/06 16:43:41;;;;;;;1.53;0.98;;;;;;;21.15;40.11;99841.35;;;;-51
2021/04/06 16:46:41;;;;;;;1.69;1.03;;;;;;;21.16;40.17;99840.94;;;;-50